Time;durP1;ratioP1;P1;durP2;ratioP2;P2;SDS_P1;SDS_P2;PMS_P1;PMS_P2;Temp;Humidity;BMP_temperature;BMP_pressure;BME280_temperature;BME280_humidity;BME280_pressure;Samples;Min_cycle;Max_cycle;Signal;HPM_P1;HPM_P2
2023/08/02 00:00:35;;;;;;;3.58;1.70;;;22.20;53.60;;;;;;5034289;28;20212;-81
2023/08/02 00:03:02;;;;;;;1.92;1.55;;;22.30;53.60;;;;;;5034747;28;20204;-81
2023/08/02 00:05:29;;;;;;;2.22;1.30;;;22.20;53.60;;;;;;5033966;28;20192;-81
2023/08/02 00:07:56;;;;;;;2.15;1.60;;;22.20;53.60;;;;;;5034029;28;20226;-81
2023/08/02 00:10:24;;;;;;;2.58;1.75;;;22.20;53.70;;;;;;5034004;28;20226;-81
2023/08/02 00:12:52;;;;;;;2.50;1.50;;;22.20;53.70;;;;;;5034310;28;20211;-81
2023/08/02 00:15:19;;;;;;;2.58;1.38;;;22.20;53.70;;;;;;5034166;28;20196;-81
2023/08/02 00:17:46;;;;;;;1.40;1.30;;;22.20;53.70;;;;;;5034314;28;20204;-81
2023/08/02 00:20:13;;;;;;;1.65;1.50;;;22.20;53.70;;;;;;5035300;28;20212;-81
2023/08/02 00:22:40;;;;;;;1.98;1.40;;;22.10;53.70;;;;;;5037767;28;20663;-81
2023/08/02 00:25:07;;;;;;;1.92;1.48;;;22.10;53.80;;;;;;5035540;28;20220;-81
2023/08/02 00:27:34;;;;;;;2.22;1.67;;;22.10;54.10;;;;;;5034254;28;20207;-81
2023/08/02 00:30:02;;;;;;;1.60;1.50;;;22.20;54.00;;;;;;5034282;28;20200;-81
2023/08/02 00:32:29;;;;;;;2.70;1.60;;;22.10;53.90;;;;;;5034039;28;20196;-81
2023/08/02 00:34:56;;;;;;;3.00;1.45;;;22.10;53.90;;;;;;5034090;28;20659;-81
2023/08/02 00:37:23;;;;;;;1.50;1.40;;;22.10;53.90;;;;;;5034566;28;20195;-81
2023/08/02 00:39:52;;;;;;;1.70;1.40;;;22.10;53.90;;;;;;5018551;28;20202;-81
2023/08/02 00:42:20;;;;;;;1.48;1.38;;;22.10;54.00;;;;;;5034762;28;20575;-81
2023/08/02 00:44:47;;;;;;;2.17;1.40;;;22.10;54.00;;;;;;5034434;28;20574;-81
2023/08/02 00:47:15;;;;;;;1.95;1.60;;;22.10;54.10;;;;;;5035337;28;20200;-81
2023/08/02 00:49:44;;;;;;;2.00;1.60;;;22.10;54.20;;;;;;5035356;28;20200;-81
2023/08/02 00:52:12;;;;;;;1.75;1.65;;;22.10;54.20;;;;;;5034071;28;20212;-81
2023/08/02 00:54:39;;;;;;;1.70;1.60;;;22.10;54.20;;;;;;5034701;28;20192;-81
2023/08/02 00:57:07;;;;;;;2.00;1.50;;;22.10;54.20;;;;;;5028291;28;20287;-81
2023/08/02 00:59:33;;;;;;;1.70;1.60;;;22.10;54.20;;;;;;5033488;28;20206;-81
2023/08/02 01:02:01;;;;;;;1.88;1.60;;;22.00;54.20;;;;;;5033475;28;20301;-81
2023/08/02 01:04:29;;;;;;;2.15;1.30;;;22.10;54.30;;;;;;5033460;28;20679;-81
2023/08/02 01:07:01;;;;;;;2.15;1.45;;;22.00;54.20;;;;;;5034492;28;20222;-81
2023/08/02 01:09:30;;;;;;;2.42;1.60;;;22.00;54.20;;;;;;5035848;28;20257;-81
2023/08/02 01:12:00;;;;;;;2.75;1.30;;;22.00;54.20;;;;;;5034674;28;20220;-81
2023/08/02 01:14:27;;;;;;;2.55;1.65;;;22.00;54.20;;;;;;5034711;28;20666;-81
2023/08/02 01:16:54;;;;;;;2.78;1.50;;;21.90;54.20;;;;;;5034802;28;20211;-81
2023/08/02 01:19:21;;;;;;;2.38;1.60;;;21.90;54.30;;;;;;5033373;28;20295;-81
2023/08/02 01:21:50;;;;;;;2.80;1.58;;;22.00;54.20;;;;;;5032866;28;20215;-81
2023/08/02 01:24:17;;;;;;;1.83;1.30;;;21.90;54.20;;;;;;5033014;28;20220;-82
2023/08/02 01:26:47;;;;;;;1.75;1.45;;;22.00;54.30;;;;;;5033605;28;20227;-82
2023/08/02 01:29:15;;;;;;;2.00;1.80;;;22.00;54.30;;;;;;5032894;28;20599;-82
2023/08/02 01:31:43;;;;;;;3.53;1.58;;;21.90;54.20;;;;;;5033054;28;20223;-82
2023/08/02 01:34:10;;;;;;;2.15;1.38;;;21.90;54.40;;;;;;5033083;28;20618;-82
2023/08/02 01:36:38;;;;;;;2.78;1.67;;;21.90;54.40;;;;;;5032857;28;20196;-82
2023/08/02 01:39:08;;;;;;;1.63;1.52;;;21.90;54.30;;;;;;5034089;28;20196;-82
2023/08/02 01:41:36;;;;;;;2.97;1.50;;;21.90;54.30;;;;;;5033028;28;20219;-82
2023/08/02 01:44:03;;;;;;;1.48;1.38;;;21.90;54.30;;;;;;5032958;28;20629;-82
2023/08/02 01:46:30;;;;;;;2.35;1.67;;;21.90;54.30;;;;;;5033073;28;20200;-81
2023/08/02 01:48:58;;;;;;;1.90;1.60;;;21.80;54.30;;;;;;5033942;28;20553;-81
2023/08/02 01:51:25;;;;;;;2.17;1.58;;;21.80;54.30;;;;;;5034809;28;20223;-81
2023/08/02 01:53:52;;;;;;;2.70;1.60;;;21.80;54.30;;;;;;5034040;28;20651;-80
2023/08/02 01:56:20;;;;;;;1.58;1.48;;;21.80;54.30;;;;;;5034814;28;20188;-80
2023/08/02 01:58:47;;;;;;;3.00;1.60;;;21.80;54.90;;;;;;5034789;28;20192;-80
2023/08/02 02:01:14;;;;;;;2.05;1.55;;;21.80;54.30;;;;;;5030436;28;20220;-81
2023/08/02 02:03:41;;;;;;;1.60;1.40;;;21.80;54.40;;;;;;5033467;28;20209;-81
2023/08/02 02:06:08;;;;;;;1.70;1.58;;;21.70;54.30;;;;;;5032998;28;20204;-81
2023/08/02 02:08:35;;;;;;;2.55;1.50;;;21.80;54.50;;;;;;5033336;28;20495;-81
2023/08/02 02:11:03;;;;;;;1.40;1.30;;;21.80;54.60;;;;;;5017398;28;20306;-81
2023/08/02 02:13:32;;;;;;;1.73;1.42;;;21.70;54.50;;;;;;5032751;28;20645;-81
2023/08/02 02:15:59;;;;;;;2.40;1.60;;;21.70;54.60;;;;;;5033317;28;20268;-81
2023/08/02 02:18:26;;;;;;;2.28;1.65;;;21.70;54.60;;;;;;5032440;28;20196;-81
2023/08/02 02:20:53;;;;;;;2.03;1.55;;;21.70;54.70;;;;;;5035930;28;20222;-81
2023/08/02 02:23:20;;;;;;;2.35;1.65;;;21.60;54.60;;;;;;5036643;28;20200;-81
2023/08/02 02:25:47;;;;;;;3.08;1.88;;;21.70;54.70;;;;;;5036913;28;20219;-81
2023/08/02 02:28:19;;;;;;;2.80;1.48;;;21.60;54.70;;;;;;5037119;28;20196;-81
2023/08/02 02:30:47;;;;;;;2.08;1.60;;;21.70;54.90;;;;;;5037190;28;20224;-81
2023/08/02 02:33:14;;;;;;;2.25;1.70;;;21.60;54.80;;;;;;5037201;28;20651;-81
2023/08/02 02:35:41;;;;;;;1.95;1.63;;;21.60;54.80;;;;;;5020215;28;20208;-81
2023/08/02 02:38:08;;;;;;;1.63;1.48;;;21.60;54.90;;;;;;5036799;28;20210;-81
2023/08/02 02:40:35;;;;;;;1.67;1.50;;;21.60;54.90;;;;;;5036236;28;20226;-81
2023/08/02 02:43:02;;;;;;;1.92;1.40;;;21.60;54.90;;;;;;5036098;28;20238;-81
2023/08/02 02:45:30;;;;;;;1.77;1.45;;;21.60;54.90;;;;;;5036278;28;20678;-81
2023/08/02 02:47:58;;;;;;;2.70;1.80;;;21.60;55.00;;;;;;5036198;28;20195;-81
2023/08/02 02:50:27;;;;;;;2.63;1.60;;;21.60;54.90;;;;;;5036134;28;20629;-80
2023/08/02 02:52:54;;;;;;;1.85;1.52;;;21.60;54.90;;;;;;5036046;28;20717;-81
2023/08/02 02:55:21;;;;;;;1.80;1.40;;;21.60;55.00;;;;;;5035680;28;20196;-81
2023/08/02 02:57:48;;;;;;;2.60;1.55;;;21.60;55.00;;;;;;5034876;28;20219;-81
2023/08/02 03:00:15;;;;;;;1.60;1.50;;;21.60;55.00;;;;;;5035187;28;20220;-81
2023/08/02 03:02:42;;;;;;;2.88;1.73;;;21.60;55.00;;;;;;5035690;28;20207;-81
2023/08/02 03:05:10;;;;;;;2.60;1.40;;;21.60;55.00;;;;;;5035268;28;20216;-81
2023/08/02 03:07:38;;;;;;;1.80;1.50;;;21.60;55.00;;;;;;5035580;28;20636;-81
2023/08/02 03:10:05;;;;;;;2.42;1.70;;;21.60;55.60;;;;;;5035474;28;20200;-81
2023/08/02 03:12:33;;;;;;;2.08;1.58;;;21.70;55.00;;;;;;5035708;28;20208;-81
2023/08/02 03:15:00;;;;;;;3.25;1.55;;;21.60;54.90;;;;;;5020211;28;20200;-81
2023/08/02 03:17:27;;;;;;;2.85;1.70;;;21.70;54.90;;;;;;5037387;28;20204;-81
2023/08/02 03:19:54;;;;;;;1.73;1.63;;;21.70;54.90;;;;;;5038235;28;20200;-81
2023/08/02 03:22:23;;;;;;;1.60;1.50;;;21.80;55.00;;;;;;5021286;28;20227;-81
2023/08/02 03:24:50;;;;;;;1.85;1.50;;;21.80;54.90;;;;;;5039139;28;20266;-81
2023/08/02 03:27:17;;;;;;;2.00;1.58;;;21.80;54.90;;;;;;5038697;28;20609;-82
2023/08/02 03:29:44;;;;;;;1.65;1.42;;;21.90;54.90;;;;;;5038502;28;20199;-82
2023/08/02 03:32:11;;;;;;;2.97;1.73;;;21.90;54.80;;;;;;5037906;28;20698;-82
2023/08/02 03:34:38;;;;;;;2.53;1.50;;;22.00;54.80;;;;;;5037526;28;20196;-82
2023/08/02 03:37:05;;;;;;;2.13;1.48;;;22.00;54.90;;;;;;5036580;28;20223;-82
2023/08/02 03:39:34;;;;;;;2.33;1.63;;;22.00;54.80;;;;;;5036473;28;20200;-82
2023/08/02 03:42:01;;;;;;;1.75;1.52;;;22.10;54.70;;;;;;5036206;28;20226;-82
2023/08/02 03:44:28;;;;;;;1.40;1.30;;;22.10;54.60;;;;;;5036556;28;20273;-81
2023/08/02 03:46:55;;;;;;;2.55;1.50;;;22.20;54.60;;;;;;5036896;28;20200;-81
2023/08/02 03:49:22;;;;;;;2.08;1.50;;;22.20;54.40;;;;;;5036159;28;20618;-81
2023/08/02 03:51:49;;;;;;;2.78;1.58;;;22.20;54.50;;;;;;5033848;28;20270;-81
2023/08/02 03:54:16;;;;;;;3.25;1.60;;;22.30;54.50;;;;;;5034126;28;20206;-81
2023/08/02 03:56:45;;;;;;;2.35;1.42;;;22.20;54.40;;;;;;5018145;28;20322;-81
2023/08/02 03:59:12;;;;;;;2.60;1.55;;;22.30;54.50;;;;;;5034552;28;20682;-81
2023/08/02 04:01:39;;;;;;;2.95;1.80;;;22.30;54.70;;;;;;5017857;28;20212;-81
2023/08/02 04:04:06;;;;;;;2.65;1.90;;;22.20;54.70;;;;;;5034547;28;20231;-81
2023/08/02 04:06:33;;;;;;;2.28;1.60;;;22.20;54.80;;;;;;5034881;28;20250;-81
2023/08/02 04:09:00;;;;;;;2.25;1.63;;;22.10;54.80;;;;;;5034272;28;20552;-81
2023/08/02 04:11:27;;;;;;;2.28;1.63;;;22.20;55.00;;;;;;5034093;28;20698;-81
2023/08/02 04:13:55;;;;;;;1.90;1.60;;;22.10;55.00;;;;;;5033993;28;20196;-81
2023/08/02 04:16:22;;;;;;;2.03;1.50;;;22.10;55.00;;;;;;5033706;28;20301;-81
2023/08/02 04:18:50;;;;;;;3.15;1.65;;;22.10;55.10;;;;;;5033632;28;20204;-81
2023/08/02 04:21:18;;;;;;;1.98;1.52;;;22.10;55.20;;;;;;5017384;28;20227;-81
2023/08/02 04:23:45;;;;;;;2.38;1.50;;;22.10;55.20;;;;;;5033941;28;20227;-81
2023/08/02 04:26:12;;;;;;;2.10;1.90;;;22.10;55.30;;;;;;5033666;28;20231;-81
2023/08/02 04:28:39;;;;;;;2.33;1.63;;;22.10;55.20;;;;;;5044876;28;20215;-81
2023/08/02 04:31:07;;;;;;;3.22;1.48;;;22.10;55.20;;;;;;5034958;28;20219;-81
2023/08/02 04:33:35;;;;;;;2.92;1.58;;;22.10;55.10;;;;;;5035362;28;20192;-81
2023/08/02 04:36:01;;;;;;;2.88;1.70;;;22.10;55.20;;;;;;5034296;28;20191;-81
2023/08/02 04:38:28;;;;;;;1.77;1.67;;;22.10;55.20;;;;;;5033156;28;20196;-81
2023/08/02 04:40:55;;;;;;;3.30;1.70;;;22.10;55.30;;;;;;5033982;28;20699;-81
2023/08/02 04:43:22;;;;;;;1.95;1.55;;;22.10;55.40;;;;;;5032829;28;20667;-81
2023/08/02 04:45:49;;;;;;;4.13;1.70;;;22.10;55.40;;;;;;5033582;28;20224;-81
2023/08/02 04:48:18;;;;;;;2.50;1.80;;;22.10;55.50;;;;;;5032849;28;20211;-81
2023/08/02 04:50:44;;;;;;;1.88;1.67;;;22.20;55.60;;;;;;5033069;28;20219;-81
2023/08/02 04:53:11;;;;;;;1.70;1.60;;;22.10;55.50;;;;;;5033303;28;20246;-81
2023/08/02 04:55:42;;;;;;;1.60;1.48;;;22.10;55.50;;;;;;5033663;28;20556;-81
2023/08/02 04:58:09;;;;;;;2.47;1.55;;;22.20;55.80;;;;;;5033674;28;20196;-81
2023/08/02 05:00:36;;;;;;;2.28;1.67;;;22.10;55.80;;;;;;5033393;28;20242;-81
2023/08/02 05:03:03;;;;;;;1.92;1.63;;;22.20;55.90;;;;;;5033467;28;20200;-81
2023/08/02 05:05:31;;;;;;;1.65;1.52;;;22.20;55.90;;;;;;5033038;28;20630;-82
2023/08/02 05:07:58;;;;;;;1.75;1.60;;;22.10;56.00;;;;;;5033492;28;20199;-82
2023/08/02 05:10:25;;;;;;;3.05;1.70;;;22.20;56.20;;;;;;5033368;28;20292;-81
2023/08/02 05:12:52;;;;;;;1.90;1.55;;;22.10;56.20;;;;;;5025395;28;20208;-81
2023/08/02 05:15:19;;;;;;;1.95;1.60;;;22.10;56.20;;;;;;5018246;28;20288;-82
2023/08/02 05:17:46;;;;;;;1.67;1.58;;;22.10;56.30;;;;;;5025775;28;20207;-84
2023/08/02 05:20:13;;;;;;;2.58;1.73;;;22.10;56.30;;;;;;5025517;28;20302;-84
2023/08/02 05:22:42;;;;;;;2.38;1.70;;;22.20;56.30;;;;;;5008802;28;20652;-83
2023/08/02 05:25:10;;;;;;;2.88;1.67;;;22.20;56.30;;;;;;5031914;28;20216;-84
2023/08/02 05:27:37;;;;;;;2.85;1.90;;;22.10;56.30;;;;;;5033088;28;20286;-84
2023/08/02 05:30:04;;;;;;;2.00;1.63;;;22.20;56.60;;;;;;5032966;28;20199;-85
2023/08/02 05:32:31;;;;;;;2.53;2.30;;;22.10;56.70;;;;;;5033059;28;20207;-84
2023/08/02 05:34:58;;;;;;;1.88;1.67;;;22.20;56.90;;;;;;5032924;28;20200;-85
2023/08/02 05:37:28;;;;;;;2.70;1.63;;;22.10;57.60;;;;;;5032511;28;20204;-86
2023/08/02 05:39:56;;;;;;;1.70;1.60;;;22.10;57.30;;;;;;5032741;28;20278;-86
2023/08/02 05:42:23;;;;;;;2.47;2.00;;;22.10;57.50;;;;;;5033327;28;20689;-85
2023/08/02 05:44:50;;;;;;;3.25;1.90;;;22.10;57.60;;;;;;5016262;28;20200;-86
2023/08/02 05:47:17;;;;;;;2.35;1.80;;;22.10;57.80;;;;;;5032465;28;20250;-87
2023/08/02 05:49:44;;;;;;;3.00;2.17;;;22.10;58.10;;;;;;5028551;28;20247;-87
2023/08/02 05:52:11;;;;;;;2.97;2.42;;;22.10;58.40;;;;;;5032576;28;20671;-86
2023/08/02 05:54:38;;;;;;;2.70;2.13;;;22.00;58.40;;;;;;5035332;28;20208;-87
2023/08/02 05:57:08;;;;;;;3.85;2.13;;;22.00;58.60;;;;;;5036141;28;20250;-88
2023/08/02 05:59:37;;;;;;;2.95;2.25;;;22.00;58.60;;;;;;5035983;28;20204;-87
2023/08/02 06:02:04;;;;;;;2.28;1.92;;;21.90;58.60;;;;;;5035847;28;20699;-88
2023/08/02 06:04:33;;;;;;;2.70;2.17;;;22.00;58.70;;;;;;5036496;28;20615;-88
2023/08/02 06:07:00;;;;;;;2.80;2.00;;;22.00;58.70;;;;;;5025651;28;20231;-86
2023/08/02 06:09:27;;;;;;;3.53;2.17;;;22.00;58.90;;;;;;5035806;28;20200;-85
2023/08/02 06:11:54;;;;;;;2.88;2.10;;;22.00;58.90;;;;;;5036231;28;20220;-85
2023/08/02 06:14:23;;;;;;;2.47;2.25;;;22.00;58.60;;;;;;5036005;28;20206;-86
2023/08/02 06:16:50;;;;;;;2.17;1.95;;;22.10;58.60;;;;;;5035780;28;20193;-86
2023/08/02 06:19:17;;;;;;;2.83;2.00;;;22.10;58.40;;;;;;5035917;28;20196;-85
2023/08/02 06:21:43;;;;;;;3.95;2.10;;;22.10;58.30;;;;;;5036032;28;20702;-85
2023/08/02 06:24:11;;;;;;;2.90;2.30;;;22.20;58.30;;;;;;5040795;28;20639;-85
2023/08/02 06:26:38;;;;;;;3.58;2.20;;;22.20;58.00;;;;;;5039867;28;20266;-85
2023/08/02 06:29:06;;;;;;;3.33;2.05;;;22.30;57.90;;;;;;5036360;28;20220;-85
2023/08/02 06:31:35;;;;;;;2.50;1.90;;;22.30;57.70;;;;;;5036620;28;20223;-83
2023/08/02 06:34:02;;;;;;;3.15;2.25;;;22.40;57.60;;;;;;5037575;28;20234;-83
2023/08/02 06:36:30;;;;;;;3.25;2.15;;;22.40;57.50;;;;;;5036432;28;20200;-84
2023/08/02 06:38:57;;;;;;;2.50;2.30;;;22.40;58.10;;;;;;5036270;28;20215;-83
2023/08/02 06:41:24;;;;;;;3.78;2.10;;;22.40;58.20;;;;;;5036196;28;20216;-82
2023/08/02 06:43:51;;;;;;;3.30;2.08;;;22.40;58.00;;;;;;5038057;28;20211;-82
2023/08/02 06:46:18;;;;;;;3.70;2.30;;;22.40;57.80;;;;;;5020905;28;20219;-82
2023/08/02 06:48:47;;;;;;;1.98;1.80;;;22.50;57.80;;;;;;5036599;28;20203;-83
2023/08/02 06:51:14;;;;;;;2.80;2.10;;;22.40;57.80;;;;;;5035108;28;20223;-83
2023/08/02 06:53:41;;;;;;;2.72;1.98;;;22.40;57.90;;;;;;5035722;28;20200;-83
2023/08/02 06:56:12;;;;;;;3.15;2.10;;;22.40;58.00;;;;;;5034034;28;20196;-83
2023/08/02 06:58:40;;;;;;;2.80;2.05;;;22.50;58.00;;;;;;5033620;28;20218;-83
2023/08/02 07:01:13;;;;;;;2.88;2.00;;;22.50;57.90;;;;;;5033383;28;20619;-83
2023/08/02 07:03:41;;;;;;;3.53;2.15;;;22.50;57.60;;;;;;5033622;28;20204;-83
2023/08/02 07:06:13;;;;;;;2.78;2.30;;;22.60;57.60;;;;;;5032491;28;20286;-83
2023/08/02 07:08:40;;;;;;;3.75;2.20;;;22.70;57.50;;;;;;5033190;28;20686;-83
2023/08/02 07:11:07;;;;;;;2.55;2.10;;;22.60;57.20;;;;;;5039509;23;20216;-55
2023/08/02 07:13:36;;;;;;;2.40;2.20;;;22.70;57.20;;;;;;5033864;28;20576;-56
2023/08/02 07:16:03;;;;;;;3.45;2.10;;;22.60;57.20;;;;;;5034871;28;20185;-55
2023/08/02 07:18:30;;;;;;;2.47;2.10;;;22.70;57.20;;;;;;5033455;28;20227;-55
2023/08/02 07:20:57;;;;;;;3.17;2.50;;;22.70;57.70;;;;;;5034666;28;20243;-55
2023/08/02 07:23:26;;;;;;;3.40;2.13;;;22.70;57.10;;;;;;5033447;28;20231;-56
2023/08/02 07:25:53;;;;;;;3.15;2.45;;;22.70;57.10;;;;;;5033385;28;20342;-56
2023/08/02 07:28:20;;;;;;;3.80;2.13;;;22.70;57.00;;;;;;5033280;28;20210;-55
2023/08/02 07:30:47;;;;;;;3.35;2.15;;;22.70;56.80;;;;;;5033095;28;20307;-55
2023/08/02 07:33:14;;;;;;;3.05;2.10;;;22.70;56.70;;;;;;5033261;28;20222;-55
2023/08/02 07:35:41;;;;;;;2.70;2.38;;;22.80;56.80;;;;;;5034346;28;20249;-55
2023/08/02 07:38:08;;;;;;;3.33;2.35;;;22.80;56.80;;;;;;5034455;28;20236;-55
2023/08/02 07:40:37;;;;;;;4.28;2.28;;;22.90;56.90;;;;;;5033131;28;20728;-55
2023/08/02 07:43:04;;;;;;;3.13;2.10;;;22.90;56.70;;;;;;5034589;28;20664;-55
2023/08/02 07:45:31;;;;;;;3.38;2.25;;;22.90;56.70;;;;;;5034136;28;20191;-55
2023/08/02 07:47:59;;;;;;;3.08;2.58;;;22.90;56.70;;;;;;5034419;28;20192;-55
2023/08/02 07:50:26;;;;;;;3.33;2.35;;;22.90;56.70;;;;;;5032783;28;20223;-55
2023/08/02 07:52:53;;;;;;;2.35;2.15;;;22.90;56.70;;;;;;5032844;28;20204;-55
2023/08/02 07:55:20;;;;;;;3.78;2.47;;;22.90;56.50;;;;;;5032756;28;20199;-55
2023/08/02 07:57:48;;;;;;;3.65;2.70;;;22.90;56.50;;;;;;5034181;28;20195;-55
2023/08/02 08:00:16;;;;;;;4.10;2.33;;;22.90;56.50;;;;;;5032576;28;20314;-55
2023/08/02 08:02:43;;;;;;;3.22;2.63;;;22.90;56.50;;;;;;5033877;28;20218;-55
2023/08/02 08:05:10;;;;;;;3.50;2.55;;;23.00;56.60;;;;;;5032713;28;20231;-55
2023/08/02 08:07:37;;;;;;;3.30;2.50;;;23.00;56.60;;;;;;5032481;28;20218;-55
2023/08/02 08:10:05;;;;;;;3.80;2.83;;;23.00;56.50;;;;;;5032284;28;20223;-56
2023/08/02 08:12:32;;;;;;;2.35;2.15;;;23.00;56.40;;;;;;5032669;28;20192;-55
2023/08/02 08:15:00;;;;;;;3.35;2.25;;;23.00;56.40;;;;;;5032926;28;20188;-55
2023/08/02 08:17:27;;;;;;;3.22;2.30;;;23.00;56.40;;;;;;5032902;28;20623;-55
2023/08/02 08:19:54;;;;;;;2.63;2.42;;;23.00;56.50;;;;;;5033625;28;20211;-55
2023/08/02 08:22:28;;;;;;;4.72;2.58;;;23.00;56.40;;;;;;5033556;28;20196;-56
2023/08/02 08:24:55;;;;;;;2.88;2.47;;;23.00;56.70;;;;;;5033835;28;20216;-55
2023/08/02 08:27:22;;;;;;;2.72;2.45;;;23.00;56.60;;;;;;5032060;28;20307;-55
2023/08/02 08:29:49;;;;;;;3.30;2.70;;;22.90;56.60;;;;;;5033360;28;20595;-55
2023/08/02 08:32:17;;;;;;;2.67;2.47;;;23.00;56.60;;;;;;5032050;28;20226;-55
2023/08/02 08:34:45;;;;;;;2.80;2.45;;;23.00;56.60;;;;;;5032046;28;20589;-55
2023/08/02 08:37:12;;;;;;;3.05;2.65;;;23.00;56.40;;;;;;5031980;28;20196;-55
2023/08/02 08:39:39;;;;;;;2.70;2.50;;;23.10;56.40;;;;;;5031976;28;20653;-55
2023/08/02 08:42:07;;;;;;;3.55;2.60;;;23.10;56.30;;;;;;5031833;28;20216;-55
2023/08/02 08:44:36;;;;;;;3.33;2.20;;;23.20;56.20;;;;;;5033713;28;20192;-55
2023/08/02 08:47:04;;;;;;;3.53;2.50;;;23.20;56.10;;;;;;5033129;28;20586;-55
2023/08/02 08:49:32;;;;;;;2.38;2.17;;;23.20;56.00;;;;;;5033083;28;20184;-55
2023/08/02 08:52:01;;;;;;;2.38;2.17;;;23.20;55.90;;;;;;5033030;28;20693;-55
2023/08/02 08:54:28;;;;;;;3.08;2.60;;;23.30;56.00;;;;;;5031788;28;20210;-55
2023/08/02 08:56:55;;;;;;;2.63;2.38;;;23.30;55.90;;;;;;5031927;28;20602;-55
2023/08/02 08:59:22;;;;;;;3.70;2.90;;;23.30;55.90;;;;;;5033302;28;20224;-55
2023/08/02 09:01:49;;;;;;;2.40;2.20;;;23.40;55.80;;;;;;5031618;28;20214;-55
2023/08/02 09:04:16;;;;;;;2.95;2.38;;;23.40;55.80;;;;;;5031746;28;20203;-55
2023/08/02 09:06:44;;;;;;;2.60;2.40;;;23.40;55.80;;;;;;5031469;28;20216;-55
2023/08/02 09:09:14;;;;;;;3.50;2.85;;;23.40;55.70;;;;;;5032917;28;20532;-55
2023/08/02 09:11:41;;;;;;;3.08;2.78;;;23.40;55.70;;;;;;5031466;28;20242;-55
2023/08/02 09:14:12;;;;;;;2.65;2.35;;;23.40;55.70;;;;;;5031570;28;20200;-56
2023/08/02 09:16:59;;;;;;;2.65;2.42;;;23.50;55.70;;;;;;5033108;28;20192;-55
2023/08/02 09:19:27;;;;;;;2.45;2.25;;;23.40;55.70;;;;;;5030374;28;20690;-55
2023/08/02 09:22:11;;;;;;;3.53;2.70;;;23.40;55.80;;;;;;5032740;28;20212;-56
2023/08/02 09:24:39;;;;;;;2.78;2.40;;;23.50;55.70;;;;;;5031392;28;20204;-56
2023/08/02 09:27:08;;;;;;;2.50;2.30;;;23.50;55.80;;;;;;5032844;28;20212;-55
2023/08/02 09:29:47;;;;;;;2.63;2.42;;;23.50;55.70;;;;;;5034702;28;20286;-56
2023/08/02 09:32:14;;;;;;;2.53;2.17;;;23.50;55.70;;;;;;5035471;28;20676;-55
2023/08/02 09:34:45;;;;;;;3.03;2.20;;;23.50;55.70;;;;;;5035439;28;20219;-56
2023/08/02 09:37:14;;;;;;;2.35;2.15;;;23.40;55.70;;;;;;5035397;28;20204;-56
2023/08/02 09:39:42;;;;;;;2.42;2.22;;;23.50;55.80;;;;;;5036636;28;20180;-55
2023/08/02 09:42:11;;;;;;;2.28;2.05;;;23.50;55.70;;;;;;5035444;28;20196;-56
2023/08/02 09:44:38;;;;;;;2.42;2.22;;;23.50;55.80;;;;;;5035127;28;20206;-56
2023/08/02 09:47:09;;;;;;;2.42;2.22;;;23.50;55.80;;;;;;5036390;28;20207;-56
2023/08/02 09:49:36;;;;;;;2.60;2.10;;;23.50;55.70;;;;;;5035050;28;20204;-56
2023/08/02 09:52:03;;;;;;;2.65;2.42;;;23.50;55.70;;;;;;5036506;28;20290;-56
2023/08/02 09:54:32;;;;;;;2.67;2.30;;;23.60;55.70;;;;;;5036304;28;20195;-56
2023/08/02 09:56:59;;;;;;;2.97;2.25;;;23.60;55.60;;;;;;5035428;28;20549;-56
2023/08/02 09:59:26;;;;;;;2.45;2.25;;;23.60;55.60;;;;;;5036285;28;20191;-56
2023/08/02 10:01:53;;;;;;;2.50;2.30;;;23.60;55.50;;;;;;5034814;28;20226;-56
2023/08/02 10:04:20;;;;;;;2.40;2.20;;;23.60;55.50;;;;;;5036140;28;20192;-56
2023/08/02 10:06:49;;;;;;;2.88;2.40;;;23.60;55.60;;;;;;5034944;28;20220;-56
2023/08/02 10:09:20;;;;;;;2.50;2.30;;;23.60;55.50;;;;;;5034762;28;20212;-56
2023/08/02 10:11:52;;;;;;;2.50;2.30;;;23.60;55.50;;;;;;5034746;28;20247;-56
2023/08/02 10:14:19;;;;;;;2.70;2.40;;;23.70;56.10;;;;;;5035971;28;20180;-55
2023/08/02 10:16:46;;;;;;;3.20;2.45;;;23.60;55.50;;;;;;5035902;28;20192;-56
2023/08/02 10:19:13;;;;;;;2.97;2.20;;;23.70;55.60;;;;;;5034585;28;20203;-56
2023/08/02 10:21:40;;;;;;;2.53;2.33;;;23.70;55.60;;;;;;5035832;28;20653;-56
2023/08/02 10:24:07;;;;;;;1.90;1.80;;;23.70;55.40;;;;;;5035869;28;20188;-56
2023/08/02 10:26:34;;;;;;;2.63;2.22;;;23.70;55.40;;;;;;5034361;28;20196;-56
2023/08/02 10:29:03;;;;;;;2.28;2.10;;;23.70;55.70;;;;;;5034469;28;20223;-56
2023/08/02 10:31:30;;;;;;;2.45;2.15;;;23.80;55.50;;;;;;5035536;28;20235;-55
2023/08/02 10:33:57;;;;;;;2.20;2.00;;;23.80;55.50;;;;;;5034307;28;20196;-56
2023/08/02 10:36:24;;;;;;;2.30;2.10;;;23.80;55.50;;;;;;5035521;28;20188;-56
2023/08/02 10:38:53;;;;;;;2.30;2.10;;;23.80;55.40;;;;;;5034376;28;20196;-56
2023/08/02 10:41:21;;;;;;;2.00;1.90;;;23.70;55.60;;;;;;5033353;28;20253;-57
2023/08/02 10:44:14;;;;;;;2.47;2.28;;;23.80;55.40;;;;;;5034331;28;20203;-56
2023/08/02 10:46:41;;;;;;;2.42;2.08;;;23.80;55.50;;;;;;5034900;28;20287;-56
2023/08/02 10:49:38;;;;;;;3.33;2.03;;;23.80;55.50;;;;;;5034021;28;20249;-56
2023/08/02 10:52:28;;;;;;;2.35;2.10;;;23.80;55.70;;;;;;5033898;28;20230;-56
2023/08/02 10:55:09;;;;;;;2.42;2.22;;;23.70;55.40;;;;;;5033889;28;20212;-56
2023/08/02 10:57:36;;;;;;;1.98;1.88;;;23.70;55.50;;;;;;5033887;28;20195;-56
2023/08/02 11:00:23;;;;;;;2.40;2.20;;;23.70;55.60;;;;;;5033694;28;20571;-56
2023/08/02 11:02:51;;;;;;;2.50;2.30;;;23.70;55.70;;;;;;5034629;28;20199;-56
2023/08/02 11:05:36;;;;;;;2.45;2.15;;;23.60;55.60;;;;;;5035305;28;20708;-56
2023/08/02 11:08:03;;;;;;;2.78;2.22;;;23.60;55.70;;;;;;5035131;28;20220;-55
2023/08/02 11:10:30;;;;;;;2.45;2.13;;;23.60;55.70;;;;;;5033570;28;20314;-56
2023/08/02 11:12:58;;;;;;;2.33;2.08;;;23.60;55.80;;;;;;5033562;28;20204;-56
2023/08/02 11:15:26;;;;;;;2.40;2.10;;;23.60;55.70;;;;;;5034848;28;20267;-56
2023/08/02 11:17:57;;;;;;;2.03;1.83;;;23.70;55.80;;;;;;5034837;28;20184;-56
2023/08/02 11:20:26;;;;;;;2.08;1.92;;;23.70;55.90;;;;;;5033366;28;20220;-56
2023/08/02 11:22:53;;;;;;;2.17;1.98;;;23.70;55.70;;;;;;5034972;28;20215;-55
2023/08/02 11:25:21;;;;;;;2.45;2.05;;;23.70;55.70;;;;;;5033365;28;20204;-56
2023/08/02 11:27:48;;;;;;;2.25;2.00;;;23.70;55.70;;;;;;5033220;28;20227;-55
2023/08/02 11:30:14;;;;;;;2.30;1.98;;;23.80;55.60;;;;;;5033185;28;20215;-56
2023/08/02 11:32:46;;;;;;;2.38;2.17;;;23.70;56.30;;;;;;5034662;28;20195;-56
2023/08/02 11:35:16;;;;;;;2.75;2.30;;;23.80;55.50;;;;;;5034507;28;20188;-56
2023/08/02 11:37:43;;;;;;;2.65;2.45;;;23.80;55.50;;;;;;5033090;28;20207;-55
2023/08/02 11:40:11;;;;;;;2.42;2.22;;;23.80;55.40;;;;;;5032920;28;20230;-56
2023/08/02 11:42:46;;;;;;;2.10;2.00;;;23.80;55.50;;;;;;5032980;28;20203;-56
2023/08/02 11:45:13;;;;;;;2.22;2.03;;;23.90;55.50;;;;;;5034548;28;20180;-56
2023/08/02 11:47:40;;;;;;;2.05;1.88;;;23.90;55.20;;;;;;5033092;28;20216;-56
2023/08/02 11:50:09;;;;;;;2.22;2.05;;;23.90;55.00;;;;;;5034079;28;20208;-56
2023/08/02 11:52:36;;;;;;;2.05;1.90;;;24.00;55.10;;;;;;5033942;28;20190;-55
2023/08/02 11:55:03;;;;;;;2.38;2.15;;;24.00;54.90;;;;;;5032780;28;20622;-55
2023/08/02 11:57:31;;;;;;;2.40;2.00;;;24.00;54.70;;;;;;5034005;28;20203;-55
2023/08/02 11:59:59;;;;;;;2.58;2.10;;;24.10;54.60;;;;;;5033818;28;20753;-55
2023/08/02 12:02:27;;;;;;;2.20;2.00;;;24.20;54.50;;;;;;5032769;28;20200;-55
2023/08/02 12:04:55;;;;;;;2.25;2.05;;;24.20;54.40;;;;;;5033202;28;20283;-55
2023/08/02 12:07:27;;;;;;;2.20;2.05;;;24.20;54.30;;;;;;5032488;28;20223;-55
2023/08/02 12:09:54;;;;;;;2.22;2.03;;;24.30;54.30;;;;;;5032371;28;20207;-55
2023/08/02 12:12:21;;;;;;;2.03;1.80;;;24.30;54.60;;;;;;5033787;28;20187;-55
2023/08/02 12:14:49;;;;;;;2.47;1.90;;;24.30;54.20;;;;;;5033952;28;20204;-55
2023/08/02 12:17:17;;;;;;;2.30;2.00;;;24.40;54.20;;;;;;5032284;28;20200;-55
2023/08/02 12:19:44;;;;;;;2.38;2.17;;;24.40;54.60;;;;;;5032327;28;20200;-55
2023/08/02 12:22:11;;;;;;;2.03;1.92;;;24.40;54.50;;;;;;5047058;22;20566;-78
2023/08/02 12:24:40;;;;;;;2.20;2.00;;;24.40;53.80;;;;;;4964740;28;20205;-78
2023/08/02 12:27:14;;;;;;;2.28;2.08;;;24.40;54.00;;;;;;4997357;28;20655;-78
2023/08/02 12:29:42;;;;;;;5.15;2.08;;;24.40;53.80;;;;;;4996883;28;20200;-77
2023/08/02 12:32:09;;;;;;;2.20;2.00;;;24.50;53.80;;;;;;4996686;28;20268;-77
2023/08/02 12:34:37;;;;;;;1.90;1.80;;;24.50;53.80;;;;;;4996740;28;20670;-77
2023/08/02 12:37:05;;;;;;;2.63;2.13;;;24.50;53.80;;;;;;4996832;28;20200;-77
2023/08/02 12:39:32;;;;;;;2.03;1.90;;;24.50;53.80;;;;;;4997465;28;20200;-77
2023/08/02 12:42:00;;;;;;;1.90;1.80;;;24.50;53.80;;;;;;4996833;28;20703;-77
2023/08/02 12:44:27;;;;;;;2.22;1.98;;;24.50;53.80;;;;;;4982091;28;20299;-77
2023/08/02 12:46:54;;;;;;;2.35;2.15;;;24.60;53.80;;;;;;5014495;28;20192;-77
2023/08/02 12:49:21;;;;;;;2.40;2.20;;;24.50;53.70;;;;;;4996664;28;20710;-77
2023/08/02 12:51:48;;;;;;;2.28;2.08;;;24.60;53.80;;;;;;4996841;28;20217;-77